Time;durP1;ratioP1;P1;durP2;ratioP2;P2;SDS_P1;SDS_P2;PMS_P1;PMS_P2;Temp;Humidity;BMP_temperature;BMP_pressure;BME280_temperature;BME280_humidity;BME280_pressure;Samples;Min_cycle;Max_cycle;Signal;HPM_P1;HPM_P2
2023/06/30 00:01:48;;;;;;;12.43;8.47;;;;;;;19.42;100.00;98648.84;5125758;27;20694;-78
2023/06/30 00:04:18;;;;;;;11.27;8.20;;;;;;;19.31;100.00;98649.19;5132687;27;20210;-78
2023/06/30 00:06:50;;;;;;;11.33;7.80;;;;;;;19.34;100.00;98644.31;5131503;27;20222;-78
2023/06/30 00:09:21;;;;;;;10.63;8.20;;;;;;;19.32;100.00;98642.81;5129860;27;20201;-78
2023/06/30 00:11:51;;;;;;;12.57;8.40;;;;;;;19.35;100.00;98639.78;5131524;27;20194;-78
2023/06/30 00:14:22;;;;;;;10.43;7.67;;;;;;;19.49;100.00;98641.78;5124246;27;20201;-79
2023/06/30 00:16:51;;;;;;;11.23;8.23;;;;;;;19.49;100.00;98632.88;5126589;27;20206;-78
2023/06/30 00:19:19;;;;;;;12.33;8.10;;;;;;;19.51;100.00;98636.28;5122399;27;20198;-78
2023/06/30 00:21:52;;;;;;;10.90;7.30;;;;;;;19.57;100.00;98633.75;5123200;27;20194;-79
2023/06/30 00:24:20;;;;;;;9.50;7.73;;;;;;;19.50;100.00;98632.75;5123543;27;20224;-78
2023/06/30 00:26:48;;;;;;;11.17;7.77;;;;;;;19.45;100.00;98627.03;5125351;27;20645;-78
2023/06/30 00:29:17;;;;;;;12.00;8.40;;;;;;;19.16;100.00;98641.78;5129986;27;20257;-78
2023/06/30 00:31:47;;;;;;;11.27;8.40;;;;;;;18.88;100.00;98638.50;5129269;27;20206;-79
2023/06/30 00:34:15;;;;;;;11.00;8.47;;;;;;;18.40;100.00;98649.03;5125539;27;20221;-78
2023/06/30 00:36:44;;;;;;;10.80;7.40;;;;;;;18.69;100.00;98640.63;5124799;27;20190;-79
2023/06/30 00:39:15;;;;;;;11.70;7.77;;;;;;;18.73;100.00;98634.81;5128861;27;20608;-79
2023/06/30 00:41:44;;;;;;;10.80;8.00;;;;;;;19.01;100.00;98629.13;5082474;27;20230;-78
2023/06/30 00:44:12;;;;;;;12.20;7.40;;;;;;;19.17;100.00;98626.50;5123389;27;20229;-79
2023/06/30 00:46:41;;;;;;;12.50;8.30;;;;;;;19.15;100.00;98631.19;5130124;27;20202;-78
2023/06/30 00:49:12;;;;;;;9.90;7.87;;;;;;;19.20;100.00;98636.06;5122876;27;20221;-78
2023/06/30 00:51:41;;;;;;;12.90;8.10;;;;;;;19.27;100.00;98637.91;5130875;27;20198;-78
2023/06/30 00:54:10;;;;;;;11.03;8.33;;;;;;;18.92;100.00;98635.53;5124632;27;20194;-77
2023/06/30 00:56:41;;;;;;;11.43;8.20;;;;;;;18.80;100.00;98640.34;5122183;28;20198;-78
2023/06/30 00:59:10;;;;;;;12.37;7.77;;;;;;;19.10;100.00;98636.22;5127661;27;20197;-78
2023/06/30 01:01:44;;;;;;;11.32;8.63;;;;;;;19.24;100.00;98630.22;5134101;27;20182;-78
2023/06/30 01:04:23;;;;;;;14.57;8.77;;;;;;;19.37;100.00;98630.53;5132365;27;20217;-78
2023/06/30 01:07:00;;;;;;;11.83;8.70;;;;;;;19.44;100.00;98631.56;5134606;27;20227;-77
2023/06/30 01:09:34;;;;;;;9.90;7.90;;;;;;;19.51;100.00;98629.06;5136714;27;20194;-78
2023/06/30 01:12:02;;;;;;;12.33;8.50;;;;;;;19.56;100.00;98628.56;5130467;27;20205;-78
2023/06/30 01:14:32;;;;;;;11.70;7.93;;;;;;;19.51;100.00;98637.13;5132858;27;20218;-78
2023/06/30 01:17:02;;;;;;;10.43;8.00;;;;;;;19.42;100.00;98630.06;5130695;27;20225;-78
2023/06/30 01:19:36;;;;;;;12.03;7.73;;;;;;;19.34;100.00;98638.94;5140431;27;20186;-77
2023/06/30 01:22:13;;;;;;;11.60;7.40;;;;;;;19.32;100.00;98626.69;5135898;27;20194;-78
2023/06/30 01:24:44;;;;;;;9.83;7.43;;;;;;;19.17;100.00;98637.25;5132078;27;20213;-78
2023/06/30 01:27:13;;;;;;;10.87;8.10;;;;;;;19.14;100.00;98643.78;5132709;27;20200;-79
2023/06/30 01:29:42;;;;;;;10.63;7.97;;;;;;;19.02;100.00;98642.44;5135895;27;20221;-79
2023/06/30 01:32:16;;;;;;;9.73;7.37;;;;;;;19.18;100.00;98646.97;5132947;27;20198;-78
2023/06/30 01:34:47;;;;;;;13.47;8.00;;;;;;;19.22;100.00;98647.50;5131556;27;20314;-78
2023/06/30 01:37:15;;;;;;;12.80;8.53;;;;;;;19.21;100.00;98653.88;5135147;27;20261;-78
2023/06/30 01:39:48;;;;;;;15.30;8.17;;;;;;;19.24;100.00;98656.22;5131487;27;20206;-78
2023/06/30 01:42:19;;;;;;;13.23;9.20;;;;;;;19.11;100.00;98670.13;5127563;27;20214;-77
2023/06/30 01:44:50;;;;;;;13.70;8.87;;;;;;;18.88;100.00;98678.78;5052255;28;20243;-77
2023/06/30 01:47:19;;;;;;;15.80;9.73;;;;;;;18.77;100.00;98683.59;4969302;28;20212;-77
2023/06/30 01:49:50;;;;;;;11.10;8.80;;;;;;;18.81;100.00;98685.78;4972783;28;20199;-77
2023/06/30 01:52:20;;;;;;;21.70;9.60;;;;;;;18.72;100.00;98684.09;4974764;28;20203;-76
2023/06/30 01:54:48;;;;;;;14.50;9.77;;;;;;;18.64;100.00;98692.06;4968852;28;20200;-77
2023/06/30 01:57:17;;;;;;;15.40;9.50;;;;;;;18.67;100.00;98697.16;4970593;28;20209;-77
2023/06/30 01:59:45;;;;;;;14.57;9.77;;;;;;;18.65;100.00;98695.63;4969038;28;20274;-77
2023/06/30 02:02:13;;;;;;;14.47;10.13;;;;;;;18.60;100.00;98699.59;4986921;28;20211;-76
2023/06/30 02:04:42;;;;;;;14.50;10.70;;;;;;;18.49;100.00;98696.34;5046699;28;20271;-76
2023/06/30 02:07:11;;;;;;;16.10;11.10;;;;;;;18.58;100.00;98703.44;5045448;28;20209;-77
2023/06/30 02:09:41;;;;;;;16.93;11.27;;;;;;;18.58;100.00;98704.28;5045567;28;20224;-77
2023/06/30 02:12:15;;;;;;;15.33;10.63;;;;;;;18.71;100.00;98708.38;5098346;27;20201;-77
2023/06/30 02:14:44;;;;;;;15.90;10.73;;;;;;;18.56;100.00;98708.97;5128602;27;20207;-77
2023/06/30 02:17:13;;;;;;;17.17;10.50;;;;;;;18.59;100.00;98702.44;5049859;28;20201;-77
2023/06/30 02:19:42;;;;;;;16.20;11.47;;;;;;;18.39;100.00;98692.94;5050034;28;20195;-77
2023/06/30 02:22:12;;;;;;;15.50;10.97;;;;;;;18.49;100.00;98697.19;5045275;28;20228;-77
2023/06/30 02:24:41;;;;;;;15.47;10.40;;;;;;;18.37;100.00;98698.47;5042334;28;20270;-77
2023/06/30 02:27:09;;;;;;;16.17;11.20;;;;;;;18.55;100.00;98703.78;5045124;28;20295;-77
2023/06/30 02:29:38;;;;;;;12.17;10.73;;;;;;;18.59;100.00;98707.81;5043860;28;20325;-77
2023/06/30 02:32:09;;;;;;;14.43;10.73;;;;;;;18.77;100.00;98702.38;5047150;28;20207;-77
2023/06/30 02:34:37;;;;;;;18.60;11.83;;;;;;;18.85;100.00;98695.22;5060344;27;20191;-77
2023/06/30 02:37:06;;;;;;;15.60;11.07;;;;;;;18.95;100.00;98689.72;5130624;27;20214;-77
2023/06/30 02:39:36;;;;;;;15.73;10.60;;;;;;;19.07;100.00;98687.56;5124891;27;20198;-77
2023/06/30 02:42:05;;;;;;;15.33;11.50;;;;;;;18.95;100.00;98684.34;5127565;27;20285;-77
2023/06/30 02:44:34;;;;;;;14.73;11.37;;;;;;;19.02;100.00;98682.69;5125567;27;20222;-77
2023/06/30 02:47:02;;;;;;;13.83;10.60;;;;;;;18.95;100.00;98687.03;5128528;27;20281;-77
2023/06/30 02:49:32;;;;;;;13.83;10.83;;;;;;;19.03;100.00;98691.59;5128318;27;20637;-77
2023/06/30 02:52:02;;;;;;;17.30;10.63;;;;;;;19.00;100.00;98695.41;5128394;27;20235;-77
2023/06/30 02:54:30;;;;;;;13.73;10.27;;;;;;;18.99;100.00;98688.38;5092137;27;20284;-77
2023/06/30 02:57:00;;;;;;;15.13;10.83;;;;;;;19.07;100.00;98682.19;5126930;27;20221;-77
2023/06/30 02:59:29;;;;;;;15.53;10.97;;;;;;;19.11;100.00;98678.19;5126875;27;20192;-77
2023/06/30 03:01:58;;;;;;;12.07;10.67;;;;;;;19.15;100.00;98671.47;5129197;27;20224;-77
2023/06/30 03:04:27;;;;;;;12.83;10.13;;;;;;;19.08;100.00;98670.44;5131168;27;20214;-77
2023/06/30 03:06:56;;;;;;;14.83;10.10;;;;;;;19.04;100.00;98664.56;5065201;28;20188;-77
2023/06/30 03:09:24;;;;;;;15.60;10.77;;;;;;;19.13;100.00;98657.38;5063081;28;20686;-77
2023/06/30 03:11:54;;;;;;;15.30;10.80;;;;;;;19.21;100.00;98651.19;5062747;28;20367;-77
2023/06/30 03:14:24;;;;;;;13.23;10.33;;;;;;;19.02;100.00;98652.31;5060587;28;20219;-77
2023/06/30 03:16:54;;;;;;;14.90;9.90;;;;;;;19.14;100.00;98656.38;5060798;28;20192;-77
2023/06/30 03:19:23;;;;;;;15.23;10.27;;;;;;;19.12;100.00;98655.69;5062161;28;20246;-77
2023/06/30 03:21:53;;;;;;;14.73;10.87;;;;;;;19.09;100.00;98647.97;5068865;28;20207;-77
2023/06/30 03:24:22;;;;;;;13.97;10.37;;;;;;;18.96;100.00;98651.13;5077450;27;20240;-77
2023/06/30 03:26:50;;;;;;;14.97;10.20;;;;;;;19.06;100.00;98651.81;5124122;27;20216;-78
2023/06/30 03:29:19;;;;;;;13.27;10.60;;;;;;;19.10;100.00;98639.72;5125513;27;20206;-77
2023/06/30 03:31:49;;;;;;;16.27;11.03;;;;;;;18.99;100.00;98644.56;5124654;27;20206;-77
2023/06/30 03:34:17;;;;;;;17.03;11.50;;;;;;;18.84;100.00;98642.53;5131007;27;20221;-77
2023/06/30 03:36:46;;;;;;;16.30;10.93;;;;;;;18.83;100.00;98648.91;5130133;27;20213;-77
2023/06/30 03:39:15;;;;;;;15.20;11.30;;;;;;;18.84;100.00;98645.22;5126371;27;20209;-78
2023/06/30 03:41:46;;;;;;;16.27;10.93;;;;;;;18.84;100.00;98645.22;5120985;27;20238;-77
2023/06/30 03:44:14;;;;;;;15.97;11.63;;;;;;;18.95;100.00;98643.25;5126104;27;20201;-77
2023/06/30 03:46:42;;;;;;;15.77;11.00;;;;;;;18.93;100.00;98645.25;5131653;27;20734;-77
2023/06/30 03:49:13;;;;;;;13.27;10.67;;;;;;;18.98;100.00;98651.78;5127663;27;20191;-76
2023/06/30 03:51:42;;;;;;;13.10;10.57;;;;;;;19.00;100.00;98646.25;5124587;27;20201;-77
2023/06/30 03:54:11;;;;;;;12.97;10.40;;;;;;;18.82;100.00;98657.13;5125292;27;20307;-77
2023/06/30 03:56:40;;;;;;;14.87;10.80;;;;;;;18.67;100.00;98659.59;5126164;27;20195;-77
2023/06/30 03:59:09;;;;;;;15.13;9.97;;;;;;;18.57;100.00;98665.03;5120051;27;20205;-77
2023/06/30 04:01:39;;;;;;;13.60;10.07;;;;;;;18.66;100.00;98663.28;5127700;27;20202;-77
2023/06/30 04:04:08;;;;;;;13.23;10.30;;;;;;;18.71;100.00;98665.44;5119961;27;20209;-76
2023/06/30 04:06:38;;;;;;;14.40;10.50;;;;;;;18.60;100.00;98670.06;5125027;27;20218;-77
2023/06/30 04:09:07;;;;;;;15.50;10.83;;;;;;;18.59;100.00;98675.59;5044828;28;20220;-77
2023/06/30 04:11:36;;;;;;;13.77;10.60;;;;;;;18.67;100.00;98674.84;5046695;28;20189;-77
2023/06/30 04:14:05;;;;;;;16.93;11.00;;;;;;;18.65;100.00;98671.50;5039765;28;20220;-77
2023/06/30 04:16:33;;;;;;;13.30;11.20;;;;;;;18.65;100.00;98671.50;5044291;28;20296;-77
2023/06/30 04:19:02;;;;;;;14.60;10.90;;;;;;;18.66;100.00;98670.47;5046214;28;20267;-77
2023/06/30 04:21:31;;;;;;;16.10;11.17;;;;;;;18.75;100.00;98664.97;5026031;28;20656;-77
2023/06/30 04:24:02;;;;;;;12.73;10.37;;;;;;;18.84;100.00;98657.81;5042559;28;20209;-77
2023/06/30 04:26:32;;;;;;;12.70;10.33;;;;;;;18.96;100.00;98661.03;5055457;27;20214;-77
2023/06/30 04:29:02;;;;;;;13.63;10.57;;;;;;;19.00;100.00;98662.38;5121929;27;20194;-78
2023/06/30 04:31:31;;;;;;;17.07;11.67;;;;;;;18.92;100.00;98662.38;5125851;27;20194;-77
2023/06/30 04:34:00;;;;;;;13.70;11.07;;;;;;;18.88;100.00;98662.66;5127420;27;20198;-77
2023/06/30 04:36:29;;;;;;;12.60;11.07;;;;;;;18.93;100.00;98664.88;5123456;27;20205;-77
2023/06/30 04:38:57;;;;;;;15.07;10.93;;;;;;;18.95;100.00;98670.91;5125388;27;20218;-77
2023/06/30 04:41:27;;;;;;;14.70;11.07;;;;;;;18.98;100.00;98667.06;5125835;27;20205;-77
2023/06/30 04:43:56;;;;;;;17.57;11.67;;;;;;;18.85;100.00;98665.69;5121462;27;20235;-77
2023/06/30 04:46:25;;;;;;;15.27;11.23;;;;;;;18.85;100.00;98671.06;5126372;27;20217;-77
2023/06/30 04:48:55;;;;;;;14.97;11.77;;;;;;;18.90;100.00;98667.03;5123739;27;20244;-77
2023/06/30 04:51:24;;;;;;;14.63;11.40;;;;;;;18.84;100.00;98673.91;5124823;27;20190;-77
2023/06/30 04:53:54;;;;;;;16.43;11.07;;;;;;;18.79;100.00;98673.53;5126864;27;20198;-77
2023/06/30 04:56:23;;;;;;;13.97;11.27;;;;;;;18.87;100.00;98668.22;5122033;28;20197;-77
2023/06/30 04:58:53;;;;;;;15.20;11.33;;;;;;;18.78;100.00;98675.38;5124671;27;20197;-77
2023/06/30 05:01:21;;;;;;;15.27;10.50;;;;;;;18.91;100.00;98672.22;5124951;27;20239;-77
2023/06/30 05:03:50;;;;;;;17.03;11.80;;;;;;;18.79;100.00;98684.28;5120794;27;20228;-77
2023/06/30 05:06:21;;;;;;;14.23;11.57;;;;;;;18.74;100.00;98681.25;5123581;28;20231;-79
2023/06/30 05:08:49;;;;;;;16.47;11.83;;;;;;;18.76;100.00;98680.06;5123184;27;20221;-77
2023/06/30 05:11:17;;;;;;;15.50;12.60;;;;;;;18.76;100.00;98674.72;5121505;27;20210;-77
2023/06/30 05:13:46;;;;;;;14.97;11.53;;;;;;;18.70;100.00;98675.34;5123723;27;20198;-77
2023/06/30 05:16:16;;;;;;;17.43;12.73;;;;;;;18.56;100.00;98675.94;5129212;28;20190;-77
2023/06/30 05:18:44;;;;;;;18.63;13.00;;;;;;;18.64;100.00;98675.13;5127776;27;20625;-77
2023/06/30 05:21:13;;;;;;;16.40;12.13;;;;;;;18.64;100.00;98681.34;5129577;27;20225;-77
2023/06/30 05:23:41;;;;;;;16.57;12.03;;;;;;;18.71;100.00;98674.34;5127663;28;20218;-77
2023/06/30 05:26:11;;;;;;;16.57;12.37;;;;;;;18.76;100.00;98682.75;5121912;28;20222;-77
2023/06/30 05:28:40;;;;;;;16.60;12.60;;;;;;;18.77;100.00;98662.13;5118646;28;20186;-77
2023/06/30 05:31:16;;;;;;;16.27;12.47;;;;;;;18.88;100.00;98669.88;5130980;27;20194;-77
2023/06/30 05:33:44;;;;;;;16.30;12.07;;;;;;;18.90;100.00;98670.56;5119548;27;20194;-77
2023/06/30 05:36:13;;;;;;;15.27;11.83;;;;;;;19.00;100.00;98673.94;5124927;27;20194;-77
2023/06/30 05:38:41;;;;;;;17.67;12.57;;;;;;;18.99;100.00;98682.16;5121571;27;20652;-77
2023/06/30 05:41:10;;;;;;;16.70;12.17;;;;;;;18.94;100.00;98671.94;5125597;27;20220;-77
2023/06/30 05:43:40;;;;;;;19.07;12.67;;;;;;;18.90;100.00;98667.03;5128577;27;20218;-77
2023/06/30 05:46:08;;;;;;;20.37;13.87;;;;;;;19.01;100.00;98675.66;5128815;27;20217;-77
2023/06/30 05:48:38;;;;;;;17.83;12.70;;;;;;;19.06;100.00;98670.59;5127120;27;20225;-77
2023/06/30 05:51:07;;;;;;;15.53;12.97;;;;;;;19.09;100.00;98667.59;5128582;27;20198;-77
2023/06/30 05:53:35;;;;;;;16.27;13.20;;;;;;;19.11;100.00;98670.97;5128231;27;20186;-77
2023/06/30 05:56:04;;;;;;;17.27;12.90;;;;;;;19.16;100.00;98662.41;5134061;27;20221;-77
2023/06/30 05:58:32;;;;;;;18.03;13.40;;;;;;;19.14;100.00;98662.56;5127295;27;20577;-77
2023/06/30 06:01:00;;;;;;;19.40;13.23;;;;;;;19.12;100.00;98667.28;5129213;27;20228;-77
2023/06/30 06:03:30;;;;;;;19.03;12.80;;;;;;;19.31;100.00;98663.44;5129410;27;20278;-77
2023/06/30 06:06:00;;;;;;;17.57;12.90;;;;;;;19.27;100.00;98661.25;5130700;27;20195;-77
2023/06/30 06:08:29;;;;;;;17.47;12.50;;;;;;;19.25;100.00;98657.91;5130779;27;20255;-77
2023/06/30 06:10:57;;;;;;;18.47;13.20;;;;;;;19.30;100.00;98658.22;5130734;27;20194;-76
2023/06/30 06:13:33;;;;;;;20.23;13.10;;;;;;;19.20;100.00;98674.47;5126890;27;20374;-77
2023/06/30 06:16:03;;;;;;;17.43;12.97;;;;;;;19.16;100.00;98676.66;5133647;27;20186;-76
2023/06/30 06:18:33;;;;;;;17.23;13.70;;;;;;;19.21;100.00;98675.34;5136618;27;20194;-78
2023/06/30 06:21:07;;;;;;;20.87;14.23;;;;;;;19.23;100.00;98678.72;5131886;27;20688;-78
2023/06/30 06:23:36;;;;;;;19.33;13.63;;;;;;;19.17;100.00;98685.56;5130323;27;20201;-77
2023/06/30 06:26:04;;;;;;;22.40;15.27;;;;;;;19.01;100.00;98693.56;5128454;27;20190;-77
2023/06/30 06:28:33;;;;;;;21.77;15.50;;;;;;;18.98;100.00;98684.00;5130370;27;20190;-77
2023/06/30 06:31:01;;;;;;;24.67;15.37;;;;;;;18.90;100.00;98688.50;5126251;27;20364;-77
2023/06/30 06:33:30;;;;;;;19.93;15.70;;;;;;;18.92;100.00;98687.34;5133089;27;20225;-77
2023/06/30 06:35:59;;;;;;;22.53;16.70;;;;;;;18.81;100.00;98693.84;5125319;27;20226;-77
2023/06/30 06:38:29;;;;;;;24.00;16.83;;;;;;;18.83;100.00;98694.53;5132263;27;20197;-77
2023/06/30 06:40:57;;;;;;;23.10;17.53;;;;;;;18.72;100.00;98702.88;5130183;27;20198;-77
2023/06/30 06:43:27;;;;;;;25.83;17.70;;;;;;;18.86;100.00;98713.00;5127153;27;20232;-77
2023/06/30 06:45:55;;;;;;;24.33;18.27;;;;;;;18.90;100.00;98708.13;5128533;27;20205;-77
2023/06/30 06:48:26;;;;;;;29.30;18.40;;;;;;;18.85;100.00;98713.16;5131528;27;20218;-77
2023/06/30 06:50:55;;;;;;;24.80;17.90;;;;;;;18.90;100.00;98702.75;5126828;27;20225;-77
2023/06/30 06:53:26;;;;;;;26.10;18.57;;;;;;;18.95;100.00;98715.72;5123870;27;20202;-77
2023/06/30 06:55:57;;;;;;;27.60;18.47;;;;;;;18.93;100.00;98715.88;5127493;27;20187;-77
2023/06/30 06:58:29;;;;;;;27.50;18.77;;;;;;;18.96;100.00;98712.03;5134686;27;20222;-77
2023/06/30 07:00:58;;;;;;;28.43;18.97;;;;;;;18.89;100.00;98709.13;5126111;27;20205;-78
2023/06/30 07:03:26;;;;;;;30.50;19.83;;;;;;;18.97;100.00;98709.16;5135700;27;20199;-77
2023/06/30 07:05:55;;;;;;;29.53;20.63;;;;;;;18.91;100.00;98709.81;5130637;27;20201;-77
2023/06/30 07:08:24;;;;;;;30.40;22.23;;;;;;;18.90;100.00;98718.88;5129200;27;20220;-77
2023/06/30 07:10:52;;;;;;;33.53;22.53;;;;;;;18.80;100.00;98728.88;5135538;27;20194;-77
2023/06/30 07:13:23;;;;;;;33.03;22.90;;;;;;;18.87;100.00;98721.88;5125101;27;20264;-77
2023/06/30 07:15:53;;;;;;;34.57;23.20;;;;;;;18.85;100.00;98724.72;5131123;27;20202;-77
2023/06/30 07:18:22;;;;;;;34.07;23.17;;;;;;;18.78;100.00;98730.91;5121294;27;20657;-77
2023/06/30 07:20:53;;;;;;;34.47;23.40;;;;;;;18.77;100.00;98735.44;5135293;27;20199;-77
2023/06/30 07:23:22;;;;;;;34.53;24.27;;;;;;;18.78;100.00;98741.63;5130388;27;20211;-77
2023/06/30 07:25:54;;;;;;;35.67;24.93;;;;;;;18.73;100.00;98743.97;5127394;27;20240;-77
2023/06/30 07:28:24;;;;;;;38.57;25.53;;;;;;;18.74;100.00;98745.66;5080398;27;20693;-77
2023/06/30 07:30:56;;;;;;;42.83;26.80;;;;;;;18.77;100.00;98748.84;5125954;27;20675;-77
2023/06/30 07:33:25;;;;;;;41.07;26.10;;;;;;;18.72;100.00;98747.63;5130727;27;20281;-77
2023/06/30 07:35:55;;;;;;;32.43;23.10;;;;;;;18.58;100.00;98749.88;5128222;27;20656;-75
2023/06/30 07:38:25;;;;;;;14.17;10.33;;;;;;;18.18;100.00;98757.66;5129556;27;20275;-76
2023/06/30 07:40:55;;;;;;;13.23;8.13;;;;;;;18.10;100.00;98752.22;5126437;27;20197;-76
2023/06/30 07:43:32;;;;;;;12.73;7.17;;;;;;;17.84;100.00;98750.34;5061728;28;20232;-76
2023/06/30 07:46:01;;;;;;;8.10;5.73;;;;;;;17.81;100.00;98771.25;5055478;28;20267;-76
2023/06/30 07:48:33;;;;;;;10.10;5.70;;;;;;;17.76;100.00;98770.84;5027858;28;20221;-76
2023/06/30 07:51:03;;;;;;;8.17;4.93;;;;;;;17.77;100.00;98770.72;5023066;28;20202;-76
2023/06/30 07:53:44;;;;;;;5.47;4.03;;;;;;;17.61;100.00;98782.09;5024530;28;20276;-77
2023/06/30 07:56:16;;;;;;;5.53;3.60;;;;;;;17.67;100.00;98780.66;5024829;28;20280;-76
2023/06/30 07:58:46;;;;;;;5.77;3.30;;;;;;;17.74;100.00;98782.56;5018083;28;20194;-76
2023/06/30 08:01:17;;;;;;;4.83;2.60;;;;;;;17.60;100.00;98785.75;5044932;28;20202;-76
2023/06/30 08:03:49;;;;;;;3.00;1.83;;;;;;;17.52;100.00;98785.66;5081516;28;20304;-75
2023/06/30 08:06:19;;;;;;;4.30;1.83;;;;;;;17.22;100.00;98789.53;5096779;27;20191;-76
2023/06/30 08:08:48;;;;;;;5.00;1.47;;;;;;;17.24;100.00;98794.72;5126136;27;20222;-76
2023/06/30 08:11:27;;;;;;;1.80;1.30;;;;;;;17.19;100.00;98803.22;5127114;27;20216;-76
2023/06/30 08:14:00;;;;;;;3.33;1.23;;;;;;;17.07;100.00;98802.53;5121432;27;20280;-77
2023/06/30 08:16:28;;;;;;;1.73;1.03;;;;;;;17.09;100.00;98791.72;5127735;27;20198;-76
2023/06/30 08:18:58;;;;;;;2.70;1.17;;;;;;;17.11;100.00;98798.59;5125118;27;20209;-76
2023/06/30 08:21:28;;;;;;;1.43;0.83;;;;;;;17.13;100.00;98793.09;5062648;28;20204;-76
2023/06/30 08:23:57;;;;;;;1.60;0.60;;;;;;;17.01;100.00;98792.44;5063897;28;20196;-76
2023/06/30 08:26:26;;;;;;;1.47;0.80;;;;;;;17.01;100.00;98805.00;5070584;28;20257;-76
2023/06/30 08:28:55;;;;;;;2.17;0.77;;;;;;;16.88;100.00;98799.94;5061179;28;20220;-76
2023/06/30 08:31:25;;;;;;;3.37;0.87;;;;;;;16.86;100.00;98804.63;5063936;28;20201;-76
2023/06/30 08:33:54;;;;;;;1.47;1.10;;;;;;;16.81;100.00;98806.91;5051663;28;20283;-76
2023/06/30 08:36:23;;;;;;;1.70;0.90;;;;;;;16.75;100.00;98799.44;5061450;28;20196;-76
2023/06/30 08:38:52;;;;;;;0.83;0.83;;;;;;;16.81;100.00;98802.38;5064279;28;20267;-76
2023/06/30 08:41:22;;;;;;;2.27;0.77;;;;;;;16.90;100.00;98814.03;5068771;28;20352;-76
2023/06/30 08:43:52;;;;;;;0.90;0.73;;;;;;;16.99;100.00;98807.81;5060369;28;20243;-76
2023/06/30 08:46:24;;;;;;;1.80;0.70;;;;;;;17.05;100.00;98814.41;5062828;28;20200;-76
2023/06/30 08:48:56;;;;;;;1.10;0.70;;;;;;;17.09;100.00;98815.81;5067574;28;20306;-76
2023/06/30 08:51:28;;;;;;;1.60;0.73;;;;;;;17.14;100.00;98819.69;5067833;28;20246;-77
2023/06/30 08:54:00;;;;;;;0.70;0.67;;;;;;;16.97;100.00;98809.78;5065039;28;20197;-77
2023/06/30 08:56:31;;;;;;;0.97;0.60;;;;;;;17.01;100.00;98819.22;5066307;28;20196;-76
2023/06/30 08:58:59;;;;;;;1.43;0.60;;;;;;;17.06;100.00;98806.22;5074710;28;20195;-77
2023/06/30 09:01:28;;;;;;;0.97;0.80;;;;;;;17.01;100.00;98821.88;5103376;28;20198;-77
2023/06/30 09:04:00;;;;;;;1.90;0.60;;;;;;;16.99;100.00;98818.53;5112863;28;20250;-77
2023/06/30 09:06:29;;;;;;;1.03;0.60;;;;;;;17.00;100.00;98809.50;5104717;28;20199;-76
2023/06/30 09:09:03;;;;;;;1.13;0.70;;;;;;;16.90;100.00;98818.56;5103473;28;20211;-77
2023/06/30 09:11:33;;;;;;;1.73;0.87;;;;;;;17.03;100.00;98817.22;5106556;28;20186;-77
2023/06/30 09:14:05;;;;;;;1.53;0.70;;;;;;;17.20;100.00;98812.94;5108434;28;20243;-77
2023/06/30 09:16:34;;;;;;;0.70;0.70;;;;;;;17.13;100.00;98819.84;5108496;28;20227;-77
2023/06/30 09:19:05;;;;;;;1.60;0.77;;;;;;;17.18;100.00;98817.59;5105210;28;20202;-77
2023/06/30 09:21:34;;;;;;;0.63;0.63;;;;;;;17.16;100.00;98812.38;5107524;28;20214;-77
2023/06/30 09:24:02;;;;;;;2.40;0.70;;;;;;;17.28;100.00;98820.22;5109546;28;20274;-77
2023/06/30 09:26:32;;;;;;;2.50;0.60;;;;;;;17.33;100.00;98820.59;5113699;28;20195;-77
2023/06/30 09:29:02;;;;;;;1.70;0.70;;;;;;;17.18;100.00;98817.59;5108679;28;20225;-76
2023/06/30 09:31:31;;;;;;;0.77;0.77;;;;;;;17.28;100.00;98812.19;5115503;28;20199;-77
2023/06/30 09:34:19;;;;;;;2.03;0.60;;;;;;;17.38;100.00;98818.34;5112636;28;20299;-76
2023/06/30 09:36:48;;;;;;;0.60;0.60;;;;;;;17.51;100.00;98812.59;5107304;28;20194;-77
2023/06/30 09:39:17;;;;;;;1.37;0.70;;;;;;;17.51;100.00;98805.41;5100345;28;20191;-77
2023/06/30 09:41:47;;;;;;;0.83;0.77;;;;;;;17.41;100.00;98813.50;5116575;27;20224;-76
2023/06/30 09:44:20;;;;;;;0.93;0.80;;;;;;;17.49;100.00;98812.75;5131584;27;20186;-77
2023/06/30 09:46:49;;;;;;;0.70;0.70;;;;;;;17.57;100.00;98815.53;5133954;27;20209;-76
2023/06/30 09:49:27;;;;;;;0.90;0.73;;;;;;;17.63;100.00;98803.34;5124911;27;20293;-77
2023/06/30 09:51:57;;;;;;;1.63;0.57;;;;;;;17.61;100.00;98795.47;5137031;27;20186;-77
2023/06/30 09:54:26;;;;;;;0.87;0.70;;;;;;;17.76;100.00;98797.66;5129981;27;20195;-77
2023/06/30 09:57:11;;;;;;;1.10;0.80;;;;;;;17.86;100.00;98799.28;5131839;27;20202;-77
2023/06/30 09:59:40;;;;;;;0.73;0.70;;;;;;;17.86;100.00;98803.81;5126059;27;20273;-76
2023/06/30 10:02:10;;;;;;;1.60;0.73;;;;;;;17.85;100.00;98807.44;5130112;27;20241;-77
2023/06/30 10:04:41;;;;;;;2.40;0.70;;;;;;;17.80;100.00;98801.72;5128727;27;20226;-77
2023/06/30 10:07:14;;;;;;;0.70;0.70;;;;;;;17.78;100.00;98795.69;5136673;27;20226;-77
2023/06/30 10:09:48;;;;;;;1.73;0.63;;;;;;;17.89;100.00;98790.09;5136391;27;20252;-77
2023/06/30 10:12:19;;;;;;;1.00;0.80;;;;;;;17.98;100.00;98787.31;5129976;27;20190;-77
2023/06/30 10:14:51;;;;;;;1.90;0.80;;;;;;;17.94;100.00;98793.13;5120903;27;20206;-77
2023/06/30 10:17:20;;;;;;;3.10;0.73;;;;;;;17.86;100.00;98790.41;5126840;27;20289;-77
2023/06/30 10:19:52;;;;;;;1.63;0.70;;;;;;;17.78;100.00;98793.00;5087488;28;20751;-77
2023/06/30 10:22:22;;;;;;;0.70;0.70;;;;;;;17.71;100.00;98790.91;5083208;28;20269;-77
2023/06/30 10:24:51;;;;;;;1.17;0.70;;;;;;;17.74;100.00;98790.59;5078739;28;20199;-77
2023/06/30 10:27:21;;;;;;;0.70;0.70;;;;;;;17.69;100.00;98790.25;5083487;28;20755;-77
2023/06/30 10:29:49;;;;;;;1.90;0.83;;;;;;;17.70;100.00;98799.13;5084554;28;20299;-77
2023/06/30 10:32:20;;;;;;;0.97;0.80;;;;;;;17.67;100.00;98788.69;5081730;28;20222;-77
2023/06/30 10:34:51;;;;;;;1.93;0.77;;;;;;;17.66;100.00;98785.16;4969307;28;20195;-77
2023/06/30 10:37:20;;;;;;;0.60;0.60;;;;;;;17.70;100.00;98783.88;4970687;28;20195;-77
2023/06/30 10:39:48;;;;;;;1.40;0.87;;;;;;;17.81;100.00;98780.13;4984473;28;20207;-77
2023/06/30 10:42:20;;;;;;;0.90;0.90;;;;;;;17.79;100.00;98776.78;4987163;28;20321;-77
2023/06/30 10:44:49;;;;;;;3.77;1.10;;;;;;;17.70;100.00;98778.53;4985726;28;20199;-77
2023/06/30 10:47:22;;;;;;;5.70;1.30;;;;;;;17.77;100.00;98776.09;4984967;28;20709;-77
2023/06/30 10:49:53;;;;;;;2.40;1.30;;;;;;;17.63;100.00;98784.59;4986908;28;20219;-76
2023/06/30 10:52:27;;;;;;;1.47;1.10;;;;;;;17.40;100.00;98785.06;5018960;27;20273;-77
2023/06/30 10:54:56;;;;;;;4.33;1.50;;;;;;;17.41;100.00;98785.88;5128620;27;20281;-77
2023/06/30 10:57:28;;;;;;;1.93;1.27;;;;;;;17.51;100.00;98777.78;5131080;27;20255;-77
2023/06/30 11:00:10;;;;;;;1.93;1.57;;;;;;;17.58;100.00;98778.88;5127720;27;20507;-77
2023/06/30 11:02:39;;;;;;;2.93;1.47;;;;;;;17.60;100.00;98777.72;5129412;27;20281;-77
2023/06/30 11:05:23;;;;;;;2.90;1.60;;;;;;;17.95;100.00;98762.66;5126493;27;20274;-77
2023/06/30 11:07:53;;;;;;;2.57;1.60;;;;;;;18.01;100.00;98765.56;5028370;28;20349;-77
2023/06/30 11:10:34;;;;;;;1.73;1.63;;;;;;;18.21;100.00;98774.28;5025354;28;20210;-77
2023/06/30 11:13:05;;;;;;;2.30;1.60;;;;;;;18.33;100.00;98768.66;5021119;28;20216;-77
2023/06/30 11:15:38;;;;;;;1.77;1.40;;;;;;;18.40;100.00;98767.88;5026865;28;20202;-77
2023/06/30 11:18:11;;;;;;;2.50;1.90;;;;;;;18.65;100.00;98760.84;5031919;28;20229;-77
2023/06/30 11:20:58;;;;;;;2.90;1.80;;;;;;;18.77;100.00;98756.88;5025289;28;20931;-77
2023/06/30 11:23:29;;;;;;;4.23;1.73;;;;;;;19.05;100.00;98754.84;5031960;28;20202;-77
2023/06/30 11:25:59;;;;;;;2.47;1.80;;;;;;;19.11;100.00;98748.84;5068703;27;20199;-77
2023/06/30 11:28:28;;;;;;;1.77;1.67;;;;;;;19.01;100.00;98742.75;5122431;27;20259;-77
2023/06/30 11:31:01;;;;;;;3.00;1.70;;;;;;;19.22;100.00;98744.16;5131889;27;20255;-77